Birmingham, Ohio
Current Conditions -  °F | °C
As of 6:53 AM on Friday 31 Oct 2014 (Local Time) from KLPR Reporting Station
Overcast Overcast  
Wind Chill: 40°   Ceiling: 4900
Heat Index: 43°   Visibility: 10mi
Dew Point: 37°   Wind: 5mph
Humidity: 80%   Direction: 210°SSW
Pressure: 29.95"   Gusts: NA
Location:  41.33°N, 82.36°W
Report Text: KLPR 311053Z AUTO 21004KT 10SM OVC049 06/03 A2995 RMK AO2 SLP146 T00610028 TSNO
Loading
Personal Weather Stations






























Interactive Weather Map
Tropical Storm Tracking
New forecast layout! Learn more

10-Day Weather Forecast

Advertisements
Track Severe Weather on mobile